Time;durP1;ratioP1;P1;durP2;ratioP2;P2;SDS_P1;SDS_P2;PMS_P1;PMS_P2;Temp;Humidity;BMP_temperature;BMP_pressure;BME280_temperature;BME280_humidity;BME280_pressure;Samples;Min_cycle;Max_cycle;Signal;HPM_P1;HPM_P2
2022/03/26 00:00:09;;;;;;;50.50;28.60;;;8.70;77.40;;;;;;4994736;28;20046;-75
2022/03/26 00:02:35;;;;;;;47.80;29.85;;;8.70;77.30;;;;;;4993858;28;20050;-77
2022/03/26 00:05:00;;;;;;;42.90;27.77;;;8.70;77.50;;;;;;4995138;28;20070;-76
2022/03/26 00:07:27;;;;;;;42.80;28.65;;;8.50;78.10;;;;;;5008102;28;20017;-74
2022/03/26 00:09:52;;;;;;;49.00;28.48;;;8.40;78.30;;;;;;5017798;28;20015;-74
2022/03/26 00:12:18;;;;;;;44.28;27.83;;;8.20;78.50;;;;;;5018223;28;20053;-77
2022/03/26 00:14:44;;;;;;;44.45;27.33;;;8.10;78.80;;;;;;5014500;28;20061;-74
2022/03/26 00:17:09;;;;;;;41.03;27.42;;;8.00;79.40;;;;;;5016895;28;20030;-73
2022/03/26 00:19:35;;;;;;;39.72;26.70;;;8.00;80.20;;;;;;5018858;28;20022;-73
2022/03/26 00:22:00;;;;;;;40.28;25.95;;;8.10;80.00;;;;;;5019027;28;20042;-73
2022/03/26 00:24:26;;;;;;;44.13;27.75;;;8.00;80.10;;;;;;5019169;28;20022;-73
2022/03/26 00:26:52;;;;;;;39.13;26.17;;;7.90;81.40;;;;;;5019363;28;20070;-73
2022/03/26 00:29:18;;;;;;;49.38;29.27;;;7.90;81.50;;;;;;5019361;28;20102;-73
2022/03/26 00:31:43;;;;;;;42.83;27.58;;;8.00;81.30;;;;;;5018082;28;20010;-75
2022/03/26 00:34:09;;;;;;;43.28;26.35;;;7.90;82.20;;;;;;5018669;28;20034;-75
2022/03/26 00:36:35;;;;;;;41.03;26.30;;;7.80;82.30;;;;;;4996490;28;20022;-75
2022/03/26 00:39:02;;;;;;;43.08;28.77;;;7.80;83.20;;;;;;4995609;28;20031;-75
2022/03/26 00:41:28;;;;;;;41.60;28.23;;;8.00;83.60;;;;;;4993869;28;20022;-74
2022/03/26 00:43:55;;;;;;;40.92;26.30;;;8.00;83.70;;;;;;5012577;28;20014;-74
2022/03/26 00:46:21;;;;;;;39.00;26.15;;;8.00;83.50;;;;;;5014225;28;20073;-73
2022/03/26 00:48:47;;;;;;;42.42;26.35;;;7.90;83.80;;;;;;5016841;28;20129;-74
2022/03/26 00:51:15;;;;;;;43.33;26.45;;;7.90;83.20;;;;;;5018117;28;20007;-74
2022/03/26 00:53:42;;;;;;;45.47;28.70;;;7.80;83.70;;;;;;5017941;28;20020;-74
2022/03/26 00:56:07;;;;;;;39.47;26.70;;;7.80;84.50;;;;;;5017545;28;20025;-75
2022/03/26 00:58:33;;;;;;;44.47;27.20;;;7.70;84.80;;;;;;5017945;28;20011;-73
2022/03/26 01:00:58;;;;;;;47.63;28.58;;;7.70;84.80;;;;;;5018271;28;20035;-74
2022/03/26 01:03:24;;;;;;;38.60;25.30;;;7.80;84.60;;;;;;5016178;28;20031;-76
2022/03/26 01:05:49;;;;;;;38.72;24.55;;;7.90;84.50;;;;;;4997435;28;20479;-75
2022/03/26 01:08:15;;;;;;;43.95;25.70;;;8.00;84.50;;;;;;4996805;28;20026;-77
2022/03/26 01:10:42;;;;;;;42.88;25.25;;;8.00;84.30;;;;;;4996109;28;20109;-76
2022/03/26 01:13:07;;;;;;;42.47;25.70;;;8.00;83.90;;;;;;4995126;28;20321;-76
2022/03/26 01:15:33;;;;;;;38.35;25.10;;;8.00;84.00;;;;;;4994209;28;20037;-76
2022/03/26 01:17:59;;;;;;;40.90;25.52;;;7.90;84.10;;;;;;4992648;28;20216;-75
2022/03/26 01:20:24;;;;;;;38.75;25.90;;;7.90;84.20;;;;;;4994461;28;20483;-74
2022/03/26 01:22:50;;;;;;;38.38;25.90;;;8.00;84.00;;;;;;4992715;28;20027;-75
2022/03/26 01:25:16;;;;;;;31.30;22.90;;;7.90;84.50;;;;;;4994027;28;20026;-75
2022/03/26 01:27:41;;;;;;;42.25;25.35;;;7.90;84.70;;;;;;4993959;28;20027;-75
2022/03/26 01:30:08;;;;;;;39.00;25.38;;;7.80;86.00;;;;;;4993935;28;20023;-75
2022/03/26 01:32:34;;;;;;;41.78;25.55;;;7.70;86.00;;;;;;4993566;28;20026;-75
2022/03/26 01:34:59;;;;;;;41.45;26.10;;;7.60;86.30;;;;;;4993733;28;20095;-75
2022/03/26 01:37:25;;;;;;;37.15;25.23;;;7.60;86.30;;;;;;4992112;28;20018;-75
2022/03/26 01:39:51;;;;;;;38.97;24.67;;;7.60;86.70;;;;;;4993821;28;20026;-75
2022/03/26 01:42:17;;;;;;;42.72;25.38;;;7.50;87.00;;;;;;4976184;28;20026;-75
2022/03/26 01:44:44;;;;;;;42.67;25.83;;;7.50;87.90;;;;;;4993350;28;20042;-75
2022/03/26 01:47:10;;;;;;;39.67;25.30;;;7.40;88.40;;;;;;4994007;28;20026;-75
2022/03/26 01:49:35;;;;;;;38.28;23.70;;;7.20;89.30;;;;;;4992419;28;20512;-76
2022/03/26 01:52:03;;;;;;;38.28;24.23;;;7.10;89.80;;;;;;4993392;28;20046;-75
2022/03/26 01:54:30;;;;;;;39.00;24.30;;;7.10;90.10;;;;;;4992150;28;20034;-76
2022/03/26 01:56:56;;;;;;;39.08;25.92;;;7.10;90.30;;;;;;4993666;28;20110;-75
2022/03/26 01:59:26;;;;;;;37.45;24.17;;;7.10;90.50;;;;;;4993669;28;20026;-75
2022/03/26 02:01:52;;;;;;;39.08;25.13;;;7.00;90.40;;;;;;4993383;28;20041;-75
2022/03/26 02:04:17;;;;;;;42.45;24.88;;;7.00;91.00;;;;;;4993407;28;20026;-74
2022/03/26 02:06:43;;;;;;;40.72;24.30;;;7.00;90.90;;;;;;4994059;28;20391;-78
2022/03/26 02:09:10;;;;;;;37.78;24.73;;;7.00;90.80;;;;;;4992426;28;20101;-76
2022/03/26 02:11:38;;;;;;;37.50;23.92;;;6.90;90.80;;;;;;4992848;28;20027;-75
2022/03/26 02:14:04;;;;;;;40.50;23.60;;;6.90;90.70;;;;;;4991226;28;20026;-75
2022/03/26 02:16:32;;;;;;;40.20;25.63;;;6.80;91.20;;;;;;4991266;28;20026;-74
2022/03/26 02:18:58;;;;;;;37.83;23.05;;;6.80;91.60;;;;;;4991872;28;20023;-75
2022/03/26 02:21:24;;;;;;;37.03;23.05;;;6.90;91.30;;;;;;4996700;28;20029;-74
2022/03/26 02:23:50;;;;;;;38.38;25.60;;;6.90;91.30;;;;;;4992872;28;20434;-74
2022/03/26 02:26:21;;;;;;;39.22;23.23;;;6.80;91.50;;;;;;4991334;28;20097;-77
2022/03/26 02:28:49;;;;;;;37.88;23.50;;;6.90;91.50;;;;;;4992438;28;20072;-73
2022/03/26 02:31:15;;;;;;;39.78;24.75;;;6.80;92.50;;;;;;4992213;28;20014;-75
2022/03/26 02:33:42;;;;;;;40.22;24.67;;;6.70;92.50;;;;;;4994345;28;20426;-75
2022/03/26 02:36:09;;;;;;;37.83;24.13;;;6.60;92.80;;;;;;4994496;28;20037;-76
2022/03/26 02:38:35;;;;;;;39.22;23.08;;;6.50;93.10;;;;;;4994850;28;20118;-76
2022/03/26 02:41:01;;;;;;;35.30;23.50;;;6.40;93.60;;;;;;4995898;28;20053;-77
2022/03/26 02:43:26;;;;;;;42.38;23.85;;;6.50;94.20;;;;;;4994662;28;20449;-76
2022/03/26 02:45:52;;;;;;;38.55;25.25;;;6.50;94.20;;;;;;4995806;28;20027;-74
2022/03/26 02:48:18;;;;;;;40.13;24.25;;;6.50;94.40;;;;;;4996219;28;20023;-75
2022/03/26 02:50:44;;;;;;;37.85;23.35;;;6.60;94.70;;;;;;4997236;28;20018;-73
2022/03/26 02:53:11;;;;;;;37.55;23.27;;;6.50;94.70;;;;;;4997545;28;20023;-75
2022/03/26 02:55:37;;;;;;;35.25;23.83;;;6.50;95.10;;;;;;4995422;28;20036;-76
2022/03/26 02:58:03;;;;;;;38.55;22.50;;;6.50;95.30;;;;;;4996012;28;20134;-74
2022/03/26 03:00:28;;;;;;;41.15;26.35;;;6.50;95.50;;;;;;4995906;28;20034;-74
2022/03/26 03:02:54;;;;;;;39.72;25.02;;;6.40;95.70;;;;;;4995701;28;20030;-74
2022/03/26 03:05:20;;;;;;;40.25;23.63;;;6.40;96.00;;;;;;4995522;28;20545;-75
2022/03/26 03:07:45;;;;;;;41.13;25.15;;;6.40;96.20;;;;;;4995446;28;20385;-75
2022/03/26 03:10:15;;;;;;;41.13;24.38;;;6.30;96.60;;;;;;4995532;28;20023;-75
2022/03/26 03:12:50;;;;;;;35.80;24.50;;;6.30;97.10;;;;;;4995483;28;20477;-76
2022/03/26 03:15:20;;;;;;;36.45;23.20;;;6.30;97.40;;;;;;4995578;28;20750;-75
2022/03/26 03:17:47;;;;;;;42.10;24.77;;;6.20;97.90;;;;;;4995150;28;20499;-74
2022/03/26 03:20:14;;;;;;;38.17;23.60;;;6.30;98.30;;;;;;4995340;28;20026;-75
2022/03/26 03:22:41;;;;;;;37.53;24.35;;;6.20;98.70;;;;;;4995285;28;20483;-75
2022/03/26 03:25:07;;;;;;;41.20;25.52;;;6.20;99.00;;;;;;4995176;28;20026;-75
2022/03/26 03:27:33;;;;;;;39.72;22.80;;;6.20;99.40;;;;;;4995001;28;20066;-75
2022/03/26 03:29:59;;;;;;;35.88;23.60;;;6.20;99.40;;;;;;4995131;28;20057;-74
2022/03/26 03:32:24;;;;;;;35.53;23.15;;;6.10;99.80;;;;;;4995165;28;20495;-74
2022/03/26 03:34:51;;;;;;;35.17;22.50;;;6.10;99.90;;;;;;4994979;28;20042;-75
2022/03/26 03:37:17;;;;;;;40.20;22.55;;;6.10;99.90;;;;;;4994951;28;20022;-76
2022/03/26 03:39:42;;;;;;;36.47;22.23;;;6.10;99.90;;;;;;4993766;28;20030;-75
2022/03/26 03:42:09;;;;;;;35.95;22.10;;;6.00;99.90;;;;;;4993851;28;20027;-76
2022/03/26 03:44:35;;;;;;;32.50;20.85;;;6.00;99.80;;;;;;4994647;28;20022;-75
2022/03/26 03:47:00;;;;;;;33.58;21.60;;;6.00;99.70;;;;;;4995426;28;20033;-76
2022/03/26 03:49:26;;;;;;;34.92;21.95;;;6.00;99.40;;;;;;4993788;28;20113;-75
2022/03/26 03:51:52;;;;;;;30.48;22.23;;;6.00;99.20;;;;;;4994900;28;20022;-75
2022/03/26 03:54:18;;;;;;;32.92;22.83;;;6.00;99.70;;;;;;4993653;28;20027;-74
2022/03/26 03:56:44;;;;;;;39.45;22.83;;;5.80;99.90;;;;;;4993517;28;20033;-75
2022/03/26 03:59:10;;;;;;;33.22;21.23;;;5.80;99.90;;;;;;4994689;28;20055;-75
2022/03/26 04:01:35;;;;;;;39.47;23.52;;;5.80;99.90;;;;;;4993109;28;20050;-75
2022/03/26 04:04:01;;;;;;;32.60;21.85;;;5.80;99.90;;;;;;4994387;28;20054;-75
2022/03/26 04:06:27;;;;;;;34.25;21.33;;;5.80;99.90;;;;;;4992972;28;20018;-76
2022/03/26 04:08:53;;;;;;;34.55;21.33;;;5.80;99.90;;;;;;4994296;28;20459;-76
2022/03/26 04:11:18;;;;;;;31.27;20.48;;;5.80;99.90;;;;;;4994083;28;20031;-75
2022/03/26 04:13:46;;;;;;;35.47;21.40;;;5.80;99.90;;;;;;4994319;28;20030;-75
2022/03/26 04:16:12;;;;;;;31.15;21.60;;;5.70;99.90;;;;;;4992755;28;20029;-75
2022/03/26 04:18:38;;;;;;;41.50;23.15;;;5.60;99.90;;;;;;4992895;28;20026;-75
2022/03/26 04:21:03;;;;;;;37.10;23.33;;;5.60;99.90;;;;;;4993937;28;20030;-75
2022/03/26 04:23:29;;;;;;;38.60;22.58;;;5.50;99.90;;;;;;4992732;28;20049;-75
2022/03/26 04:25:54;;;;;;;37.33;23.35;;;5.40;99.90;;;;;;4993830;28;20479;-75
2022/03/26 04:28:20;;;;;;;39.30;24.55;;;5.40;99.90;;;;;;4994019;28;20558;-75
2022/03/26 04:30:46;;;;;;;34.75;21.88;;;5.40;99.90;;;;;;4993888;28;20622;-75
2022/03/26 04:33:12;;;;;;;36.88;22.70;;;5.40;99.90;;;;;;4993716;28;20022;-75
2022/03/26 04:35:38;;;;;;;39.13;23.77;;;5.50;99.90;;;;;;4993773;28;20515;-75
2022/03/26 04:38:03;;;;;;;41.65;23.45;;;5.50;99.90;;;;;;4993809;28;20036;-75
2022/03/26 04:40:29;;;;;;;39.15;24.42;;;5.50;99.90;;;;;;4992780;28;20113;-74
2022/03/26 04:42:55;;;;;;;38.22;22.10;;;5.40;99.90;;;;;;4992567;28;20082;-76
2022/03/26 04:45:23;;;;;;;33.50;21.20;;;5.40;99.90;;;;;;4992384;28;20038;-76
2022/03/26 04:47:48;;;;;;;35.75;22.88;;;5.30;99.90;;;;;;4992537;28;20393;-75
2022/03/26 04:50:14;;;;;;;35.00;23.23;;;5.20;99.90;;;;;;4992129;28;20018;-76
2022/03/26 04:52:40;;;;;;;37.38;22.15;;;5.20;99.90;;;;;;4992200;28;20027;-75
2022/03/26 04:55:08;;;;;;;34.72;22.35;;;5.20;99.90;;;;;;4993027;28;20395;-76
2022/03/26 04:57:38;;;;;;;33.22;22.02;;;5.20;99.90;;;;;;4991769;28;20101;-76
2022/03/26 05:00:05;;;;;;;33.50;21.17;;;5.20;99.90;;;;;;4992172;28;20113;-75
2022/03/26 05:02:31;;;;;;;35.58;23.08;;;5.10;99.90;;;;;;4993099;28;20410;-75
2022/03/26 05:04:56;;;;;;;38.40;21.75;;;5.10;99.90;;;;;;4992187;28;20046;-75
2022/03/26 05:10:06;;;;;;;40.22;23.60;;;5.10;99.90;;;;;;4993720;28;20049;-75
2022/03/26 05:12:31;;;;;;;36.20;22.90;;;5.10;99.90;;;;;;4993135;28;20482;-74
2022/03/26 05:14:57;;;;;;;39.60;23.55;;;5.10;99.90;;;;;;4993140;28;20030;-74
2022/03/26 05:17:22;;;;;;;50.45;25.45;;;5.10;99.90;;;;;;4993394;28;20030;-76
2022/03/26 05:19:48;;;;;;;38.05;23.33;;;5.10;99.90;;;;;;4993423;28;20403;-76
2022/03/26 05:22:14;;;;;;;36.95;23.58;;;5.20;99.90;;;;;;4993095;28;20038;-74
2022/03/26 05:24:39;;;;;;;40.72;23.40;;;5.20;99.90;;;;;;4993211;28;20541;-75
2022/03/26 05:27:05;;;;;;;36.53;22.73;;;5.30;99.90;;;;;;4993151;28;20030;-75
2022/03/26 05:29:30;;;;;;;38.60;23.38;;;5.30;99.90;;;;;;4993297;28;20022;-76
2022/03/26 05:31:56;;;;;;;40.47;23.38;;;5.40;99.90;;;;;;4991484;28;20023;-75
2022/03/26 05:34:22;;;;;;;33.03;23.20;;;5.50;99.90;;;;;;4992896;28;20068;-75
2022/03/26 05:36:47;;;;;;;32.88;21.90;;;5.50;99.90;;;;;;4992140;28;20026;-75
2022/03/26 05:39:13;;;;;;;43.97;24.23;;;5.60;99.90;;;;;;4993408;28;20022;-76
2022/03/26 05:41:39;;;;;;;41.63;24.38;;;5.70;99.90;;;;;;4993152;28;20553;-76
2022/03/26 05:44:05;;;;;;;36.05;22.27;;;5.80;99.90;;;;;;4993808;28;20145;-75
2022/03/26 05:46:30;;;;;;;43.47;24.17;;;6.00;99.90;;;;;;4992034;28;20030;-76
2022/03/26 05:48:56;;;;;;;39.20;24.13;;;6.10;99.90;;;;;;4993147;28;20077;-75
2022/03/26 05:51:21;;;;;;;39.83;22.48;;;6.20;99.90;;;;;;4992745;28;20474;-74
2022/03/26 05:53:49;;;;;;;41.00;23.33;;;6.30;99.90;;;;;;4992885;28;20026;-76
2022/03/26 05:56:15;;;;;;;40.65;25.48;;;6.30;99.90;;;;;;4991417;28;20030;-75
2022/03/26 05:58:41;;;;;;;34.17;23.55;;;6.20;99.90;;;;;;4991948;28;20026;-75
2022/03/26 06:01:06;;;;;;;38.42;23.40;;;6.20;99.90;;;;;;4992664;28;20118;-75
2022/03/26 06:03:32;;;;;;;40.60;23.58;;;6.20;99.90;;;;;;4993172;28;20033;-76
2022/03/26 06:05:58;;;;;;;40.13;23.23;;;6.30;99.90;;;;;;4994183;28;20398;-75
2022/03/26 06:08:24;;;;;;;35.38;23.63;;;6.30;99.90;;;;;;4996429;28;20030;-75
2022/03/26 06:10:49;;;;;;;37.35;23.88;;;6.30;99.90;;;;;;4997432;28;20525;-74
2022/03/26 06:13:15;;;;;;;42.22;24.63;;;6.40;99.90;;;;;;4997767;28;20033;-76
2022/03/26 06:15:42;;;;;;;39.78;23.40;;;6.50;99.90;;;;;;4996638;28;20026;-75
2022/03/26 06:18:08;;;;;;;50.40;25.33;;;6.60;99.90;;;;;;4995985;28;20023;-76
2022/03/26 06:20:34;;;;;;;40.00;25.42;;;6.80;99.90;;;;;;4996905;28;20042;-77
2022/03/26 06:23:00;;;;;;;37.25;23.85;;;7.00;99.90;;;;;;4996559;28;20039;-75
2022/03/26 06:25:25;;;;;;;35.25;24.85;;;7.30;99.90;;;;;;4978987;28;20035;-75
2022/03/26 06:27:51;;;;;;;35.72;23.55;;;7.30;99.70;;;;;;4996772;28;20414;-75
2022/03/26 06:30:16;;;;;;;38.40;25.17;;;7.40;99.30;;;;;;4996101;28;20422;-75
2022/03/26 06:32:42;;;;;;;35.63;24.42;;;7.50;99.10;;;;;;4995753;28;20026;-75
2022/03/26 06:35:09;;;;;;;43.55;23.58;;;7.60;99.00;;;;;;4995803;28;20536;-75
2022/03/26 06:37:34;;;;;;;36.13;23.17;;;7.60;98.90;;;;;;4996396;28;20118;-76
2022/03/26 06:40:00;;;;;;;41.05;23.95;;;7.60;98.80;;;;;;4995700;28;20066;-75
2022/03/26 06:42:25;;;;;;;40.47;24.80;;;7.70;98.90;;;;;;4997211;28;20379;-75
2022/03/26 06:44:58;;;;;;;43.88;25.58;;;7.70;98.50;;;;;;4996825;28;20085;-77
2022/03/26 06:47:25;;;;;;;35.55;24.38;;;7.90;98.00;;;;;;4995502;28;20029;-75
2022/03/26 06:49:51;;;;;;;34.80;22.77;;;8.10;97.40;;;;;;4995690;28;20022;-75
2022/03/26 06:52:16;;;;;;;35.10;22.17;;;8.20;96.90;;;;;;4996459;28;20490;-74
2022/03/26 06:54:42;;;;;;;36.55;23.00;;;7.90;96.60;;;;;;4995250;28;20085;-75
2022/03/26 06:57:07;;;;;;;37.78;23.23;;;7.80;96.70;;;;;;4994857;28;20073;-74
2022/03/26 06:59:33;;;;;;;35.35;23.70;;;7.90;97.10;;;;;;4996279;28;20431;-75
2022/03/26 07:01:58;;;;;;;42.20;24.63;;;7.80;96.50;;;;;;4997020;28;20033;-75
2022/03/26 07:04:24;;;;;;;38.50;24.17;;;7.80;96.50;;;;;;4995685;28;20046;-76
2022/03/26 07:06:49;;;;;;;37.80;23.95;;;8.00;96.40;;;;;;4996718;28;20078;-75
2022/03/26 07:09:15;;;;;;;39.95;22.30;;;8.00;96.10;;;;;;4996824;28;20026;-76
2022/03/26 07:11:41;;;;;;;38.05;25.20;;;8.10;96.20;;;;;;4996650;28;20092;-76
2022/03/26 07:14:06;;;;;;;37.78;24.33;;;8.00;96.00;;;;;;4997199;28;20031;-76
2022/03/26 07:16:32;;;;;;;37.97;23.20;;;8.00;96.10;;;;;;4995956;28;20015;-75
2022/03/26 07:18:58;;;;;;;40.55;24.90;;;8.00;95.90;;;;;;4994758;28;20520;-75
2022/03/26 07:21:23;;;;;;;36.58;24.15;;;8.10;95.90;;;;;;4994507;28;20394;-75
2022/03/26 07:23:49;;;;;;;39.00;23.63;;;8.10;95.60;;;;;;4994784;28;20029;-77
2022/03/26 07:26:15;;;;;;;39.58;23.83;;;8.30;95.60;;;;;;4996180;28;20066;-74
2022/03/26 07:28:40;;;;;;;40.38;24.73;;;8.80;94.90;;;;;;4994610;28;20019;-75
2022/03/26 07:31:06;;;;;;;41.53;24.30;;;9.00;94.60;;;;;;4994578;28;20022;-75
2022/03/26 07:33:32;;;;;;;34.97;22.73;;;9.30;94.20;;;;;;4994355;28;20034;-75
2022/03/26 07:35:57;;;;;;;38.58;22.63;;;9.40;93.80;;;;;;4994482;28;20033;-76
2022/03/26 07:38:23;;;;;;;40.03;24.08;;;9.30;93.50;;;;;;4995855;28;20109;-75
2022/03/26 07:40:49;;;;;;;45.30;25.88;;;9.30;93.80;;;;;;4994347;28;20037;-75
2022/03/26 07:43:14;;;;;;;35.22;22.85;;;9.30;93.80;;;;;;4994891;28;20027;-75
2022/03/26 07:45:40;;;;;;;34.95;23.05;;;9.40;93.40;;;;;;4995277;28;20031;-75
2022/03/26 07:48:06;;;;;;;42.28;25.80;;;9.40;93.40;;;;;;4994983;28;20042;-76
2022/03/26 07:50:31;;;;;;;38.85;24.02;;;9.30;93.50;;;;;;4993760;28;20027;-76
2022/03/26 07:52:57;;;;;;;37.20;23.90;;;9.50;93.50;;;;;;4994708;28;20072;-76
2022/03/26 07:55:23;;;;;;;39.38;24.25;;;9.90;92.70;;;;;;5000463;28;20077;-75
2022/03/26 07:57:48;;;;;;;36.05;22.77;;;10.10;92.50;;;;;;5008179;28;20036;-76
2022/03/26 08:00:14;;;;;;;39.25;23.00;;;10.40;92.10;;;;;;5012919;28;20038;-75
2022/03/26 08:02:40;;;;;;;41.95;25.83;;;10.30;91.70;;;;;;5011785;28;20224;-75
2022/03/26 08:05:06;;;;;;;40.42;23.83;;;10.10;92.30;;;;;;5008120;28;20034;-74
2022/03/26 08:07:31;;;;;;;40.42;24.52;;;10.00;92.20;;;;;;5000176;28;20033;-75
2022/03/26 08:09:57;;;;;;;37.10;23.95;;;10.10;92.20;;;;;;4995270;28;20467;-75
2022/03/26 08:12:22;;;;;;;41.50;25.67;;;10.20;92.00;;;;;;4993418;28;20033;-76
2022/03/26 08:14:48;;;;;;;36.45;24.73;;;10.10;92.00;;;;;;4993437;28;20169;-76
2022/03/26 08:17:14;;;;;;;40.17;24.40;;;10.20;92.00;;;;;;4993513;28;20030;-76
2022/03/26 08:19:40;;;;;;;38.50;23.67;;;10.30;92.20;;;;;;4993915;28;20030;-76
2022/03/26 08:22:05;;;;;;;34.65;23.83;;;10.50;92.00;;;;;;4994619;28;20120;-76
2022/03/26 08:24:31;;;;;;;38.85;23.90;;;10.70;91.60;;;;;;4994633;28;20038;-75
2022/03/26 08:26:57;;;;;;;33.38;23.17;;;11.10;91.20;;;;;;4994489;28;20022;-74
2022/03/26 08:29:22;;;;;;;43.85;23.05;;;11.20;90.80;;;;;;4994241;28;20486;-75
2022/03/26 08:31:48;;;;;;;34.78;22.67;;;11.30;90.20;;;;;;4993986;28;20029;-75
2022/03/26 08:34:13;;;;;;;37.78;23.55;;;11.30;90.60;;;;;;4994084;28;20030;-76
2022/03/26 08:36:39;;;;;;;38.53;22.58;;;11.50;90.40;;;;;;4992989;28;20070;-76
2022/03/26 08:39:05;;;;;;;39.97;23.95;;;11.90;89.20;;;;;;4992958;28;20010;-75
2022/03/26 08:41:30;;;;;;;37.83;21.90;;;12.00;88.90;;;;;;4994122;28;20022;-75
2022/03/26 08:43:56;;;;;;;39.33;22.90;;;12.00;88.50;;;;;;4993636;28;20026;-75
2022/03/26 08:46:22;;;;;;;35.13;22.40;;;12.10;87.50;;;;;;4992443;28;20030;-76
2022/03/26 08:48:49;;;;;;;35.40;22.98;;;12.30;84.70;;;;;;4992659;28;20018;-74
2022/03/26 08:51:15;;;;;;;39.08;23.20;;;12.40;83.50;;;;;;4994090;28;20398;-74
2022/03/26 08:53:41;;;;;;;37.95;23.88;;;12.40;83.80;;;;;;4994049;28;20027;-75
2022/03/26 08:56:07;;;;;;;33.80;22.00;;;12.50;82.90;;;;;;4993843;28;20026;-74
2022/03/26 08:58:33;;;;;;;39.50;23.40;;;12.50;82.60;;;;;;4994698;28;20050;-75
2022/03/26 09:00:59;;;;;;;35.50;23.60;;;12.60;81.30;;;;;;4993758;28;20034;-74
2022/03/26 09:03:25;;;;;;;35.30;23.50;;;12.80;81.10;;;;;;4993575;28;20081;-75
2022/03/26 09:05:52;;;;;;;36.13;24.33;;;12.90;80.70;;;;;;4995139;28;20030;-75
2022/03/26 09:08:18;;;;;;;34.55;23.45;;;13.10;80.50;;;;;;4996405;28;20018;-75
2022/03/26 09:10:44;;;;;;;39.92;24.02;;;13.20;78.30;;;;;;4993450;28;20022;-76
2022/03/26 09:13:10;;;;;;;40.22;26.02;;;13.10;78.50;;;;;;4993201;28;20493;-76
2022/03/26 09:15:36;;;;;;;36.70;23.58;;;13.20;79.20;;;;;;4992481;28;20034;-75
2022/03/26 09:18:02;;;;;;;44.00;23.50;;;13.20;79.00;;;;;;4994047;28;20448;-75
2022/03/26 09:20:28;;;;;;;39.63;24.45;;;13.40;78.80;;;;;;4994683;28;20050;-76
2022/03/26 09:22:54;;;;;;;39.80;24.48;;;13.40;78.50;;;;;;4993248;28;20398;-75
2022/03/26 09:25:20;;;;;;;35.70;24.60;;;13.60;78.30;;;;;;4993190;28;20030;-75
2022/03/26 09:27:47;;;;;;;40.88;24.50;;;13.30;77.60;;;;;;4993198;28;20101;-76
2022/03/26 09:30:15;;;;;;;41.10;25.55;;;13.50;78.40;;;;;;4993275;28;20108;-77
2022/03/26 09:32:41;;;;;;;35.03;23.52;;;13.40;78.10;;;;;;4993232;28;20112;-77
2022/03/26 09:35:07;;;;;;;41.78;25.88;;;13.60;77.80;;;;;;4991809;28;20078;-75
2022/03/26 09:37:34;;;;;;;43.08;25.27;;;13.40;77.80;;;;;;4993500;28;20613;-77
2022/03/26 09:40:02;;;;;;;38.90;24.23;;;13.20;78.70;;;;;;4992990;28;20101;-75
2022/03/26 09:42:28;;;;;;;41.58;25.05;;;13.50;78.80;;;;;;4991312;28;20026;-76
2022/03/26 09:44:57;;;;;;;43.50;25.00;;;13.20;79.40;;;;;;4991857;28;20430;-76
2022/03/26 09:47:23;;;;;;;42.15;24.63;;;13.40;79.30;;;;;;4991702;28;20394;-76
2022/03/26 09:49:48;;;;;;;34.95;23.55;;;13.80;78.70;;;;;;4991887;28;20027;-76
2022/03/26 09:52:14;;;;;;;38.83;23.50;;;14.10;78.20;;;;;;4993013;28;20122;-76
2022/03/26 09:54:39;;;;;;;42.72;25.08;;;14.40;78.00;;;;;;4992081;28;20426;-75
2022/03/26 09:57:06;;;;;;;40.00;24.60;;;14.50;76.90;;;;;;4993385;28;20110;-77
2022/03/26 09:59:32;;;;;;;39.00;25.75;;;14.60;76.70;;;;;;4992151;28;20061;-76
2022/03/26 10:01:57;;;;;;;38.75;23.73;;;14.80;76.10;;;;;;4992912;28;20022;-74
2022/03/26 10:04:26;;;;;;;34.42;23.52;;;14.80;75.30;;;;;;4993295;28;20483;-75
2022/03/26 10:06:58;;;;;;;38.92;23.52;;;14.90;74.80;;;;;;4993214;28;20026;-75
2022/03/26 10:09:47;;;;;;;35.47;24.75;;;15.10;74.20;;;;;;4992297;28;20403;-76
2022/03/26 10:12:18;;;;;;;40.85;24.67;;;15.20;74.90;;;;;;4992912;28;20094;-76
2022/03/26 10:14:47;;;;;;;39.40;25.25;;;15.40;73.30;;;;;;4993716;28;20038;-77
2022/03/26 10:17:28;;;;;;;40.05;24.88;;;15.60;72.00;;;;;;4992550;28;20113;-75
2022/03/26 10:20:08;;;;;;;38.70;25.23;;;15.80;71.90;;;;;;4992817;28;20033;-76
2022/03/26 10:22:39;;;;;;;38.00;25.75;;;15.80;72.20;;;;;;4992948;28;20034;-75
2022/03/26 10:25:22;;;;;;;35.30;25.02;;;15.80;72.30;;;;;;4993557;28;20061;-75
2022/03/26 10:27:55;;;;;;;40.83;25.08;;;15.80;71.70;;;;;;4993065;28;20026;-75
2022/03/26 10:33:23;;;;;;;38.75;24.48;;;15.70;72.00;;;;;;4992632;28;20041;-74
2022/03/26 10:35:53;;;;;;;40.38;25.50;;;16.00;72.10;;;;;;4996633;28;20033;-75
2022/03/26 10:38:19;;;;;;;39.65;25.83;;;16.20;71.60;;;;;;4991507;28;20030;-76
2022/03/26 10:40:44;;;;;;;43.28;25.95;;;16.30;70.70;;;;;;4992699;28;20113;-74
2022/03/26 10:43:12;;;;;;;40.67;25.70;;;16.10;70.60;;;;;;4992597;28;20567;-76
2022/03/26 10:45:47;;;;;;;41.05;25.50;;;16.20;70.40;;;;;;4991365;28;20030;-76
2022/03/26 10:48:13;;;;;;;40.67;25.38;;;16.10;70.80;;;;;;4993099;28;20109;-74
2022/03/26 10:50:40;;;;;;;37.10;25.58;;;16.30;69.80;;;;;;4993006;28;20298;-77
2022/03/26 10:53:14;;;;;;;40.22;25.02;;;16.30;70.40;;;;;;4993610;28;20032;-75
2022/03/26 10:55:40;;;;;;;37.20;24.98;;;16.20;70.30;;;;;;4997602;28;20045;-76
2022/03/26 10:58:07;;;;;;;38.85;24.88;;;16.70;69.30;;;;;;4997824;28;20552;-76
2022/03/26 11:00:33;;;;;;;38.30;25.27;;;16.90;68.30;;;;;;4996435;28;20383;-76
2022/03/26 11:02:58;;;;;;;34.92;24.55;;;17.00;68.80;;;;;;4994883;28;20030;-75
2022/03/26 11:05:25;;;;;;;35.75;23.27;;;17.20;66.40;;;;;;4995762;28;20431;-76
2022/03/26 11:07:52;;;;;;;38.53;24.33;;;17.30;65.40;;;;;;4997158;28;20026;-76
2022/03/26 11:10:19;;;;;;;35.75;24.20;;;17.30;65.60;;;;;;4996456;28;20022;-75
2022/03/26 11:12:47;;;;;;;34.72;22.98;;;17.50;64.90;;;;;;4996094;28;20031;-76
2022/03/26 11:15:26;;;;;;;36.00;23.90;;;17.60;64.00;;;;;;4997549;28;20492;-77
2022/03/26 11:18:04;;;;;;;37.20;24.65;;;17.70;63.90;;;;;;4996755;28;20117;-76
2022/03/26 11:20:59;;;;;;;33.95;23.38;;;17.70;61.90;;;;;;4995979;28;20041;-75
2022/03/26 11:23:54;;;;;;;37.70;22.65;;;17.50;62.00;;;;;;4996812;28;20028;-75
2022/03/26 11:26:44;;;;;;;34.67;23.75;;;17.80;62.00;;;;;;4996448;28;20454;-78
2022/03/26 11:29:16;;;;;;;33.27;22.70;;;17.90;61.20;;;;;;4996855;28;20102;-77
2022/03/26 11:31:50;;;;;;;35.58;22.08;;;18.10;61.00;;;;;;4994159;28;20113;-75
2022/03/26 11:34:18;;;;;;;34.20;21.80;;;18.20;60.10;;;;;;4995164;28;20081;-77
2022/03/26 11:36:43;;;;;;;27.40;20.15;;;18.30;58.40;;;;;;4994993;28;20113;-76
2022/03/26 11:39:13;;;;;;;29.55;20.85;;;18.40;57.60;;;;;;4994753;28;20057;-74
2022/03/26 11:41:41;;;;;;;31.92;21.30;;;18.30;56.90;;;;;;4995849;28;20025;-75
2022/03/26 11:44:07;;;;;;;24.92;18.27;;;18.40;57.30;;;;;;4997681;28;20049;-76
2022/03/26 11:52:29;;;;;;;28.77;19.20;;;18.50;54.10;;;;;;4996785;28;20045;-75
2022/03/26 11:55:22;;;;;;;27.70;18.15;;;18.30;54.10;;;;;;4996725;28;20026;-77
2022/03/26 11:57:47;;;;;;;26.80;17.75;;;18.20;54.00;;;;;;4994618;28;20027;-75
2022/03/26 12:00:21;;;;;;;26.10;18.50;;;18.20;54.80;;;;;;4995083;28;20104;-75
2022/03/26 12:02:51;;;;;;;27.48;18.20;;;18.40;54.90;;;;;;4995998;28;20026;-77
2022/03/26 12:08:18;;;;;;;23.08;17.92;;;18.40;54.00;;;;;;4995281;28;20514;-76
2022/03/26 12:10:44;;;;;;;25.30;17.15;;;18.60;53.40;;;;;;4993608;28;20030;-75
2022/03/26 12:13:10;;;;;;;27.92;16.98;;;18.50;52.70;;;;;;4995201;28;20026;-76
2022/03/26 12:15:36;;;;;;;24.48;17.83;;;18.60;52.70;;;;;;4994911;28;20518;-75
2022/03/26 12:18:08;;;;;;;25.60;18.10;;;18.60;53.80;;;;;;4995093;28;20049;-75
2022/03/26 12:20:45;;;;;;;21.38;16.23;;;18.70;53.70;;;;;;4996053;28;20101;-76
2022/03/26 12:23:13;;;;;;;23.33;15.40;;;18.80;51.80;;;;;;4997399;28;20101;-76
2022/03/26 12:25:46;;;;;;;22.90;15.45;;;18.60;52.00;;;;;;4996867;28;20036;-78
2022/03/26 12:28:18;;;;;;;20.90;15.30;;;18.70;52.10;;;;;;4994931;28;20326;-76
2022/03/26 12:30:53;;;;;;;22.27;15.77;;;18.60;52.20;;;;;;4995509;28;20018;-74
2022/03/26 12:33:19;;;;;;;21.13;16.45;;;18.90;52.80;;;;;;4996186;28;20031;-75
2022/03/26 12:35:47;;;;;;;27.92;17.10;;;19.00;53.60;;;;;;4995462;28;20073;-77
2022/03/26 12:38:13;;;;;;;27.83;16.13;;;19.00;53.80;;;;;;4994317;28;20501;-76
2022/03/26 12:40:39;;;;;;;20.38;16.40;;;18.90;54.10;;;;;;4996018;28;20041;-76
2022/03/26 12:43:10;;;;;;;23.88;16.73;;;18.90;53.70;;;;;;4994101;28;20026;-76
2022/03/26 12:45:35;;;;;;;23.52;15.75;;;19.00;53.80;;;;;;4995639;28;20019;-76